createdAt,value
2019-02-21T00:01:03.687Z,56.00
2019-02-21T00:03:24.049Z,54.38
2019-02-21T00:05:44.381Z,54.77
2019-02-21T00:08:04.747Z,56.80
2019-02-21T00:10:25.095Z,55.23
2019-02-21T00:12:45.379Z,62.75
2019-02-21T00:15:07.254Z,52.93
2019-02-21T00:17:27.543Z,50.90
2019-02-21T00:19:47.792Z,54.30
2019-02-21T00:22:08.107Z,55.35
2019-02-21T00:24:28.431Z,58.17
2019-02-21T00:26:48.700Z,54.40
2019-02-21T00:29:09.144Z,59.53
2019-02-21T00:31:29.484Z,50.25
2019-02-21T00:33:49.746Z,51.45
2019-02-21T00:36:10.104Z,52.17
2019-02-21T00:38:30.361Z,50.85
2019-02-21T00:40:50.712Z,51.15
2019-02-21T00:43:11.036Z,56.15
2019-02-21T00:45:32.371Z,52.05
2019-02-21T00:47:52.872Z,50.20
2019-02-21T00:50:13.181Z,51.25
2019-02-21T00:52:33.461Z,52.58
2019-02-21T00:54:53.978Z,53.30
2019-02-21T00:57:14.232Z,52.38
2019-02-21T00:59:34.887Z,50.17
2019-02-21T01:01:55.213Z,44.77
2019-02-21T01:04:15.559Z,48.15
2019-02-21T01:06:35.897Z,46.18
2019-02-21T01:08:56.171Z,56.23
2019-02-21T01:11:16.445Z,50.28
2019-02-21T01:13:37.271Z,45.15
2019-02-21T01:15:57.637Z,49.13
2019-02-21T01:18:17.922Z,44.93
2019-02-21T01:20:38.294Z,54.58
2019-02-21T01:22:58.661Z,45.90
2019-02-21T01:25:18.978Z,49.45
2019-02-21T01:27:39.315Z,43.85
2019-02-21T01:29:59.686Z,45.45
2019-02-21T01:32:21.793Z,46.90
2019-02-21T01:34:42.029Z,44.58
2019-02-21T01:37:03.297Z,45.25
2019-02-21T01:39:29.264Z,47.65
2019-02-21T01:41:56.394Z,43.17
2019-02-21T01:44:19.429Z,43.75
2019-02-21T01:46:39.154Z,43.25
2019-02-21T01:48:59.608Z,46.28
2019-02-21T01:51:19.944Z,44.08
2019-02-21T01:53:40.263Z,40.20
2019-02-21T01:56:00.533Z,45.05
2019-02-21T01:58:20.893Z,44.18
2019-02-21T02:00:42.151Z,45.48
2019-02-21T02:03:02.424Z,45.12
2019-02-21T02:05:22.744Z,42.50
2019-02-21T02:07:42.996Z,38.75
2019-02-21T02:10:03.283Z,43.30
2019-02-21T02:12:23.744Z,42.50
2019-02-21T02:14:44.082Z,42.38
2019-02-21T02:17:04.374Z,42.08
2019-02-21T02:19:24.622Z,45.80
2019-02-21T02:21:44.988Z,44.23
2019-02-21T02:24:05.353Z,39.63
2019-02-21T02:26:25.613Z,40.85
2019-02-21T02:28:45.955Z,38.80
2019-02-21T02:31:06.242Z,43.50
2019-02-21T02:33:26.575Z,42.67
2019-02-21T02:35:46.889Z,42.38
2019-02-21T02:38:07.212Z,41.30
2019-02-21T02:40:27.493Z,50.10
2019-02-21T02:42:47.778Z,44.00
2019-02-21T02:45:08.124Z,46.15
2019-02-21T02:47:28.405Z,40.03
2019-02-21T02:49:48.691Z,42.03
2019-02-21T02:52:09.031Z,47.55
2019-02-21T02:54:33.109Z,42.90
2019-02-21T02:56:53.491Z,44.23
2019-02-21T02:59:13.821Z,42.80
2019-02-21T03:01:35.196Z,41.77
2019-02-21T03:03:55.638Z,45.12
2019-02-21T03:06:15.903Z,44.00
2019-02-21T03:08:36.264Z,41.58
2019-02-21T03:10:56.776Z,39.92
2019-02-21T03:13:17.025Z,39.83
2019-02-21T03:15:37.331Z,46.25
2019-02-21T03:17:57.673Z,39.18
2019-02-21T03:20:17.969Z,41.00
2019-02-21T03:22:38.298Z,41.60
2019-02-21T03:24:58.552Z,41.18
2019-02-21T03:27:18.839Z,43.13
2019-02-21T03:29:39.179Z,45.48
2019-02-21T03:31:59.566Z,45.40
2019-02-21T03:34:20.197Z,38.63
2019-02-21T03:36:41.681Z,46.55
2019-02-21T03:39:02.069Z,40.48
2019-02-21T03:41:23.755Z,43.33
2019-02-21T03:43:44.113Z,48.83
2019-02-21T03:46:04.495Z,39.15
2019-02-21T03:48:25.007Z,39.20
2019-02-21T03:50:45.279Z,42.08
2019-02-21T03:53:05.657Z,43.98
2019-02-21T03:55:25.962Z,42.65
2019-02-21T03:57:46.303Z,41.33
2019-02-21T04:00:09.240Z,41.23
2019-02-21T04:02:29.271Z,39.75
2019-02-21T04:04:50.610Z,44.35
2019-02-21T04:07:11.267Z,40.88
2019-02-21T04:09:31.520Z,41.92
2019-02-21T04:11:51.775Z,45.98
2019-02-21T04:14:12.152Z,43.42
2019-02-21T04:16:32.641Z,43.98
2019-02-21T04:18:53.032Z,38.08
2019-02-21T04:21:13.375Z,47.43
2019-02-21T04:23:33.701Z,42.73
2019-02-21T04:25:53.994Z,41.48
2019-02-21T04:28:14.258Z,44.20
2019-02-21T04:30:34.736Z,48.87
2019-02-21T04:32:55.125Z,44.63
2019-02-21T04:35:15.490Z,44.53
2019-02-21T04:37:35.917Z,44.65
2019-02-21T04:39:56.309Z,43.83
2019-02-21T04:42:16.687Z,44.20
2019-02-21T04:44:36.949Z,51.92
2019-02-21T04:46:57.290Z,45.12
2019-02-21T04:49:17.612Z,41.25
2019-02-21T04:51:37.993Z,48.30
2019-02-21T04:53:58.354Z,41.95
2019-02-21T04:56:18.779Z,45.52
2019-02-21T04:58:39.139Z,44.95
2019-02-21T05:00:59.429Z,45.30
2019-02-21T05:03:19.772Z,48.38
2019-02-21T05:05:40.056Z,49.35
2019-02-21T05:08:00.484Z,47.00
2019-02-21T05:10:20.851Z,48.50
2019-02-21T05:12:41.290Z,42.78
2019-02-21T05:15:01.658Z,46.50
2019-02-21T05:17:22.026Z,48.40
2019-02-21T05:19:42.384Z,51.48
2019-02-21T05:22:02.645Z,48.23
2019-02-21T05:24:22.998Z,49.40
2019-02-21T05:26:44.992Z,47.88
2019-02-21T05:29:06.974Z,52.05
2019-02-21T05:31:28.971Z,49.90
2019-02-21T05:34:05.794Z,44.77
2019-02-21T05:36:30.573Z,43.20
2019-02-21T05:38:52.501Z,50.15
2019-02-21T05:41:30.692Z,55.38
2019-02-21T05:44:08.895Z,57.15
2019-02-21T05:46:39.936Z,51.15
2019-02-21T05:49:02.046Z,51.73
2019-02-21T05:51:29.740Z,58.92
2019-02-21T05:53:51.634Z,55.03
2019-02-21T05:56:13.641Z,55.17
2019-02-21T05:58:38.569Z,47.20
2019-02-21T06:01:09.631Z,59.77
2019-02-21T06:03:47.581Z,49.75
2019-02-21T06:06:25.750Z,52.25
2019-02-21T06:08:47.659Z,53.08
2019-02-21T06:11:09.743Z,52.48
2019-02-21T06:13:31.679Z,54.67
2019-02-21T06:15:59.450Z,54.88
2019-02-21T06:18:24.457Z,51.73
2019-02-21T06:21:04.551Z,59.35
2019-02-21T06:23:29.373Z,64.65
2019-02-21T06:25:55.851Z,58.68
2019-02-21T06:28:18.644Z,58.85
2019-02-21T06:30:43.236Z,67.75
2019-02-21T06:33:05.343Z,57.25
2019-02-21T06:35:24.649Z,58.20
2019-02-21T06:37:44.995Z,63.45
2019-02-21T06:40:06.304Z,61.77
2019-02-21T06:42:26.833Z,61.98
2019-02-21T06:44:47.080Z,60.98
2019-02-21T06:47:07.429Z,56.83
2019-02-21T06:49:32.434Z,56.28
2019-02-21T06:51:49.688Z,63.73
2019-02-21T06:54:09.934Z,55.75
2019-02-21T06:56:30.218Z,52.62
2019-02-21T06:58:50.484Z,55.75
2019-02-21T07:01:10.742Z,51.83
2019-02-21T07:03:31.008Z,51.40
2019-02-21T07:05:51.388Z,53.17
2019-02-21T07:08:11.642Z,55.50
2019-02-21T07:10:31.995Z,50.80
2019-02-21T07:12:52.251Z,52.93
2019-02-21T07:15:14.999Z,50.30
2019-02-21T07:17:34.619Z,53.63
2019-02-21T07:19:55.028Z,60.08
2019-02-21T07:22:17.974Z,50.55
2019-02-21T07:24:38.616Z,58.50
2019-02-21T07:26:59.692Z,40.92
2019-02-21T07:29:19.962Z,48.15
2019-02-21T07:31:40.314Z,54.77
2019-02-21T07:34:01.679Z,48.73
2019-02-21T07:36:22.255Z,46.92
2019-02-21T07:38:42.560Z,48.68
2019-02-21T07:41:03.996Z,44.73
2019-02-21T07:43:25.015Z,42.08
2019-02-21T07:45:45.399Z,45.98
2019-02-21T07:48:05.686Z,39.60
2019-02-21T07:50:27.974Z,41.70
2019-02-21T07:52:47.973Z,34.10
2019-02-21T07:55:10.407Z,36.13
2019-02-21T07:57:30.514Z,35.40
2019-02-21T07:59:50.867Z,38.92
2019-02-21T08:02:11.182Z,33.28
2019-02-21T08:04:31.531Z,37.17
2019-02-21T08:06:51.817Z,31.30
2019-02-21T08:09:11.611Z,35.30
2019-02-21T08:11:31.645Z,38.97
2019-02-21T08:13:51.975Z,35.98
2019-02-21T08:16:12.481Z,35.78
2019-02-21T08:18:32.355Z,35.90
2019-02-21T08:20:52.658Z,33.80
2019-02-21T08:23:12.529Z,38.45
2019-02-21T08:25:32.824Z,34.48
2019-02-21T08:27:52.623Z,37.55
2019-02-21T08:30:15.760Z,42.23
2019-02-21T08:32:38.898Z,32.95
2019-02-21T08:34:58.887Z,37.85
2019-02-21T08:37:19.072Z,42.73
2019-02-21T08:39:39.567Z,40.20
2019-02-21T08:42:00.033Z,39.27
2019-02-21T08:44:20.388Z,39.55
2019-02-21T08:46:40.751Z,42.55
2019-02-21T08:49:01.141Z,45.65
2019-02-21T08:51:21.487Z,43.28
2019-02-21T08:53:41.867Z,48.63
2019-02-21T08:56:02.227Z,44.18
2019-02-21T08:58:22.605Z,46.15
2019-02-21T09:00:42.546Z,44.98
2019-02-21T09:03:03.154Z,40.98
2019-02-21T09:05:22.915Z,39.78
2019-02-21T09:07:42.616Z,41.15
2019-02-21T09:10:02.945Z,42.50
2019-02-21T09:12:22.719Z,47.95
2019-02-21T09:14:43.071Z,44.13
2019-02-21T09:17:02.793Z,48.10
2019-02-21T09:19:23.064Z,44.18
2019-02-21T09:21:43.418Z,46.83
2019-02-21T09:24:03.743Z,43.40
2019-02-21T09:26:24.110Z,40.12
2019-02-21T09:28:43.837Z,42.90
2019-02-21T09:31:04.268Z,40.50
2019-02-21T09:33:24.854Z,42.40
2019-02-21T09:35:44.695Z,46.23
2019-02-21T09:38:04.967Z,43.38
2019-02-21T09:40:25.276Z,44.93
2019-02-21T09:42:45.687Z,43.05
2019-02-21T09:45:09.353Z,45.70
2019-02-21T09:47:30.936Z,44.35
2019-02-21T09:49:50.668Z,38.92
2019-02-21T09:52:11.373Z,41.37
2019-02-21T09:54:31.152Z,48.48
2019-02-21T09:56:53.092Z,65.37
2019-02-21T09:59:13.043Z,58.25
2019-02-21T10:01:32.830Z,57.78
2019-02-21T10:03:53.624Z,59.10
2019-02-21T10:06:13.924Z,44.55
2019-02-21T10:08:33.640Z,46.65
2019-02-21T10:10:53.464Z,50.10
2019-02-21T10:13:13.885Z,43.75
2019-02-21T10:15:33.673Z,44.55
2019-02-21T10:17:53.499Z,47.93
2019-02-21T10:20:15.413Z,49.23
2019-02-21T10:22:35.113Z,43.52
2019-02-21T10:24:56.949Z,48.25
2019-02-21T10:27:16.303Z,47.60
2019-02-21T10:29:36.009Z,44.70
2019-02-21T10:31:55.808Z,45.23
2019-02-21T10:34:16.124Z,51.15
2019-02-21T10:36:35.924Z,47.13
2019-02-21T10:38:56.753Z,47.13
2019-02-21T10:41:16.451Z,45.25
2019-02-21T10:43:36.766Z,45.03
2019-02-21T10:45:57.205Z,46.10
2019-02-21T10:48:16.968Z,57.45
2019-02-21T10:50:36.738Z,47.85
2019-02-21T10:52:57.151Z,48.80
2019-02-21T10:55:17.972Z,42.03
2019-02-21T10:57:37.765Z,46.20
2019-02-21T10:59:57.471Z,50.63
2019-02-21T11:02:17.188Z,45.75
2019-02-21T11:04:37.011Z,44.58
2019-02-21T11:06:57.072Z,43.30
2019-02-21T11:09:19.781Z,41.37
2019-02-21T11:11:39.875Z,42.30
2019-02-21T11:13:59.579Z,41.20
2019-02-21T11:16:19.382Z,40.20
2019-02-21T11:18:39.441Z,43.87
2019-02-21T11:20:59.575Z,39.70
2019-02-21T11:23:19.614Z,39.60
2019-02-21T11:25:39.670Z,40.37
2019-02-21T11:27:59.643Z,40.17
2019-02-21T11:30:21.347Z,41.17
2019-02-21T11:32:41.435Z,40.30
2019-02-21T11:35:06.219Z,38.27
2019-02-21T11:37:23.170Z,41.80
2019-02-21T11:39:43.213Z,37.97
2019-02-21T11:42:03.305Z,44.10
2019-02-21T11:44:23.350Z,35.80
2019-02-21T11:46:43.411Z,37.93
2019-02-21T11:49:03.578Z,40.37
2019-02-21T11:51:23.645Z,35.53
2019-02-21T11:53:43.654Z,36.43
2019-02-21T11:56:03.654Z,32.10
2019-02-21T11:58:23.736Z,35.20
2019-02-21T12:00:43.704Z,36.80
2019-02-21T12:03:03.729Z,35.50
2019-02-21T12:05:31.921Z,39.40
2019-02-21T12:07:45.729Z,34.07
2019-02-21T12:10:08.740Z,36.53
2019-02-21T12:12:28.797Z,36.53
2019-02-21T12:14:48.497Z,38.98
2019-02-21T12:17:08.300Z,37.60
2019-02-21T12:19:29.041Z,38.95
2019-02-21T12:21:58.666Z,39.25
2019-02-21T12:24:10.260Z,34.38
2019-02-21T12:26:30.013Z,36.68
2019-02-21T12:28:49.823Z,36.10
2019-02-21T12:31:09.562Z,33.88
2019-02-21T12:33:29.612Z,33.43
2019-02-21T12:35:49.608Z,31.37
2019-02-21T12:38:09.598Z,36.33
2019-02-21T12:40:29.622Z,30.10
2019-02-21T12:42:49.705Z,34.77
2019-02-21T12:45:13.110Z,44.00
2019-02-21T12:47:33.119Z,31.80
2019-02-21T12:49:55.442Z,38.02
2019-02-21T12:52:15.766Z,29.07
2019-02-21T12:54:36.067Z,33.03
2019-02-21T12:56:56.153Z,33.93
2019-02-21T12:59:16.146Z,28.80
2019-02-21T13:01:36.199Z,36.77
2019-02-21T13:03:56.215Z,31.40
2019-02-21T13:06:16.262Z,34.93
2019-02-21T13:08:36.450Z,26.47
2019-02-21T13:10:56.532Z,30.90
2019-02-21T13:13:18.588Z,33.23
2019-02-21T13:15:38.240Z,27.03
2019-02-21T13:17:58.249Z,28.67
2019-02-21T13:20:18.261Z,23.80
2019-02-21T13:22:38.598Z,22.63
2019-02-21T13:24:58.582Z,20.40
2019-02-21T13:27:18.590Z,26.83
2019-02-21T13:29:38.588Z,31.67
2019-02-21T13:31:58.642Z,28.63
2019-02-21T13:34:18.726Z,26.07
2019-02-21T13:36:40.644Z,31.07
2019-02-21T13:39:00.614Z,26.83
2019-02-21T13:41:22.193Z,25.10
2019-02-21T13:43:42.206Z,19.87
2019-02-21T13:46:02.608Z,21.63
2019-02-21T13:48:22.725Z,21.33
2019-02-21T13:50:42.805Z,27.37
2019-02-21T13:53:02.783Z,26.40
2019-02-21T13:55:22.776Z,28.33
2019-02-21T13:57:42.851Z,22.93
2019-02-21T14:00:02.918Z,24.57
2019-02-21T14:02:24.558Z,26.03
2019-02-21T14:04:44.747Z,20.57
2019-02-21T14:07:04.730Z,25.10
2019-02-21T14:09:24.793Z,21.63
2019-02-21T14:11:44.873Z,19.73
2019-02-21T14:14:04.888Z,26.23
2019-02-21T14:16:24.962Z,23.07
2019-02-21T14:18:44.947Z,29.03
2019-02-21T14:21:05.050Z,23.00
2019-02-21T14:23:25.127Z,24.77
2019-02-21T14:25:45.273Z,22.67
2019-02-21T14:28:05.493Z,23.80
2019-02-21T14:30:25.466Z,28.13
2019-02-21T14:32:45.586Z,25.23
2019-02-21T14:35:08.608Z,27.93
2019-02-21T14:39:47.340Z,28.20
2019-02-21T14:42:09.302Z,27.60
2019-02-21T14:44:29.312Z,24.97
2019-02-21T14:46:50.258Z,27.93
2019-02-21T14:49:10.459Z,24.53
2019-02-21T14:51:30.544Z,25.03
2019-02-21T14:53:50.590Z,27.90
2019-02-21T14:56:10.579Z,35.87
2019-02-21T14:58:30.674Z,32.03
2019-02-21T15:00:50.735Z,23.93
2019-02-21T15:03:21.206Z,28.87
2019-02-21T15:05:32.447Z,32.23
2019-02-21T15:07:52.515Z,31.97
2019-02-21T15:10:12.517Z,26.93
2019-02-21T15:12:35.533Z,24.87
2019-02-21T15:14:54.628Z,24.55
2019-02-21T15:17:14.911Z,28.05
2019-02-21T15:19:34.637Z,26.40
2019-02-21T15:21:54.470Z,29.12
2019-02-21T15:24:14.301Z,30.95
2019-02-21T15:26:34.575Z,22.45
2019-02-21T15:28:54.858Z,23.27
2019-02-21T15:31:15.219Z,30.85
2019-02-21T15:33:35.001Z,29.60
2019-02-21T15:35:54.793Z,29.05
2019-02-21T15:38:19.979Z,25.92
2019-02-21T15:40:35.977Z,29.48
2019-02-21T15:42:55.708Z,31.27
2019-02-21T15:45:23.627Z,26.80
2019-02-21T15:47:41.855Z,24.63
2019-02-21T15:50:01.715Z,28.60
2019-02-21T15:52:22.769Z,24.47
2019-02-21T15:54:42.847Z,29.42
2019-02-21T15:57:02.624Z,30.10
2019-02-21T15:59:22.414Z,26.52
2019-02-21T16:01:47.599Z,31.55
2019-02-21T16:04:04.794Z,26.12
2019-02-21T16:06:25.126Z,25.12
2019-02-21T16:08:45.575Z,29.07
2019-02-21T16:11:05.298Z,30.23
2019-02-21T16:13:25.652Z,26.52
2019-02-21T16:15:46.080Z,27.17
2019-02-21T16:18:06.401Z,29.92
2019-02-21T16:20:26.800Z,21.42
2019-02-21T16:22:47.215Z,24.37
2019-02-21T16:25:13.277Z,32.05
2019-02-21T16:27:33.589Z,32.40
2019-02-21T16:29:53.903Z,38.78
2019-02-21T16:32:14.270Z,31.65
2019-02-21T16:34:35.571Z,37.88
2019-02-21T16:37:02.429Z,28.57
2019-02-21T16:39:17.930Z,39.27
2019-02-21T16:41:38.299Z,41.28
2019-02-21T16:43:58.593Z,37.42
2019-02-21T16:46:18.858Z,28.35
2019-02-21T16:48:39.213Z,22.93
2019-02-21T16:50:59.549Z,37.67
2019-02-21T16:53:20.036Z,35.13
2019-02-21T16:55:40.387Z,36.85
2019-02-21T16:58:00.670Z,37.33
2019-02-21T17:00:23.086Z,38.40
2019-02-21T17:02:43.412Z,37.80
2019-02-21T17:05:04.677Z,31.57
2019-02-21T17:07:25.126Z,32.83
2019-02-21T17:09:45.473Z,24.98
2019-02-21T17:12:05.847Z,33.08
2019-02-21T17:14:26.235Z,31.35
2019-02-21T17:16:46.610Z,34.75
2019-02-21T17:19:06.892Z,29.02
2019-02-21T17:21:27.254Z,30.57
2019-02-21T17:23:47.758Z,33.83
2019-02-21T17:26:08.117Z,37.05
2019-02-21T17:28:28.399Z,37.73
2019-02-21T17:30:49.167Z,32.67
2019-02-21T17:33:10.077Z,33.63
2019-02-21T17:35:30.759Z,40.90
2019-02-21T17:37:51.200Z,29.00
2019-02-21T17:40:17.426Z,44.33
2019-02-21T17:42:37.733Z,32.00
2019-02-21T17:44:58.008Z,30.82
2019-02-21T17:47:18.290Z,29.92
2019-02-21T17:49:38.670Z,34.23
2019-02-21T17:51:58.959Z,32.05
2019-02-21T17:54:19.272Z,32.65
2019-02-21T17:56:39.648Z,30.20
2019-02-21T17:58:59.987Z,28.62
2019-02-21T18:01:20.354Z,33.73
2019-02-21T18:03:40.626Z,35.40
2019-02-21T18:06:01.326Z,30.55
2019-02-21T18:08:21.671Z,41.08
2019-02-21T18:10:42.041Z,38.67
2019-02-21T18:13:02.355Z,36.42
2019-02-21T18:15:22.708Z,35.28
2019-02-21T18:17:43.030Z,33.78
2019-02-21T18:20:04.171Z,31.75
2019-02-21T18:22:24.462Z,30.32
2019-02-21T18:24:45.048Z,32.70
2019-02-21T18:27:05.464Z,29.70
2019-02-21T18:29:26.217Z,39.65
2019-02-21T18:31:46.582Z,41.50
2019-02-21T18:34:06.937Z,35.50
2019-02-21T18:36:27.272Z,34.53
2019-02-21T18:38:47.620Z,37.05
2019-02-21T18:41:09.933Z,37.48
2019-02-21T18:43:30.420Z,21.07
2019-02-21T18:45:50.756Z,36.15
2019-02-21T18:48:11.097Z,34.38
2019-02-21T18:50:38.322Z,38.73
2019-02-21T18:52:53.364Z,48.50
2019-02-21T18:55:13.686Z,45.35
2019-02-21T18:57:34.089Z,49.50
2019-02-21T18:59:54.436Z,42.90
2019-02-21T19:02:14.810Z,37.78
2019-02-21T19:04:35.167Z,42.67
2019-02-21T19:06:55.482Z,45.25
2019-02-21T19:09:15.917Z,39.53
2019-02-21T19:11:36.317Z,40.33
2019-02-21T19:13:56.618Z,41.50
2019-02-21T19:16:17.084Z,34.50
2019-02-21T19:18:37.408Z,36.53
2019-02-21T19:20:57.686Z,36.90
2019-02-21T19:23:18.203Z,34.48
2019-02-21T19:25:38.665Z,34.33
2019-02-21T19:27:59.014Z,35.00
2019-02-21T19:30:28.276Z,42.10
2019-02-21T19:32:48.693Z,38.00
2019-02-21T19:35:09.511Z,34.50
2019-02-21T19:37:31.220Z,34.33
2019-02-21T19:39:51.627Z,37.05
2019-02-21T19:42:11.894Z,33.58
2019-02-21T19:44:32.320Z,41.90
2019-02-21T19:46:52.795Z,36.00
2019-02-21T19:49:13.348Z,36.70
2019-02-21T19:51:33.683Z,31.35
2019-02-21T19:53:55.340Z,35.83
2019-02-21T19:56:17.303Z,39.20
2019-02-21T19:58:37.760Z,38.75
2019-02-21T20:00:59.283Z,39.35
2019-02-21T20:03:19.616Z,37.50
2019-02-21T20:05:40.001Z,37.20
2019-02-21T20:08:08.061Z,35.80
2019-02-21T20:10:23.213Z,42.63
2019-02-21T20:12:43.549Z,45.58
2019-02-21T20:15:06.016Z,43.35
2019-02-21T20:17:26.194Z,45.38
2019-02-21T20:19:46.462Z,44.00
2019-02-21T20:22:06.756Z,45.03
2019-02-21T20:24:28.601Z,39.55
2019-02-21T20:26:49.578Z,39.50
2019-02-21T20:29:10.824Z,38.28
2019-02-21T20:31:31.098Z,34.75
2019-02-21T20:33:51.575Z,44.13
2019-02-21T20:36:12.070Z,37.60
2019-02-21T20:38:32.551Z,38.75
2019-02-21T20:40:54.185Z,38.53
2019-02-21T20:43:14.656Z,42.27
2019-02-21T20:45:35.056Z,33.88
2019-02-21T20:47:55.334Z,32.65
2019-02-21T20:50:16.593Z,37.98
2019-02-21T20:52:36.956Z,29.52
2019-02-21T20:54:57.368Z,37.88
2019-02-21T20:57:17.706Z,36.50
2019-02-21T20:59:38.050Z,32.00
2019-02-21T21:01:58.341Z,34.67
2019-02-21T21:04:18.670Z,33.28
2019-02-21T21:06:38.953Z,33.53
2019-02-21T21:09:01.081Z,28.50
2019-02-21T21:11:24.012Z,35.03
2019-02-21T21:13:45.003Z,35.30
2019-02-21T21:16:05.565Z,34.30
2019-02-21T21:18:26.353Z,29.27
2019-02-21T21:20:46.655Z,36.75
2019-02-21T21:23:07.175Z,33.38
2019-02-21T21:25:27.584Z,34.23
2019-02-21T21:27:47.922Z,25.97
2019-02-21T21:30:10.459Z,30.72
2019-02-21T21:32:30.797Z,32.70
2019-02-21T21:34:51.653Z,30.20
2019-02-21T21:37:11.975Z,34.45
2019-02-21T21:39:32.322Z,31.52
2019-02-21T21:41:52.719Z,32.53
2019-02-21T21:44:13.069Z,33.88
2019-02-21T21:46:33.324Z,25.50
2019-02-21T21:48:53.623Z,27.87
2019-02-21T21:51:13.949Z,31.33
2019-02-21T21:53:34.260Z,31.40
2019-02-21T21:55:54.528Z,30.72
2019-02-21T21:58:14.867Z,30.50
2019-02-21T22:00:35.153Z,30.32
2019-02-21T22:02:55.448Z,27.17
2019-02-21T22:05:15.703Z,28.75
2019-02-21T22:07:35.959Z,27.98
2019-02-21T22:09:56.260Z,27.90
2019-02-21T22:12:16.536Z,27.37
2019-02-21T22:14:36.796Z,24.65
2019-02-21T22:16:57.223Z,34.60
2019-02-21T22:19:17.591Z,36.60
2019-02-21T22:21:37.880Z,29.87
2019-02-21T22:23:58.194Z,29.25
2019-02-21T22:26:18.533Z,28.15
2019-02-21T22:28:39.883Z,33.05
2019-02-21T22:31:00.344Z,27.13
2019-02-21T22:33:20.613Z,23.18
2019-02-21T22:35:40.990Z,28.30
2019-02-21T22:38:01.372Z,31.33
2019-02-21T22:40:21.739Z,31.15
2019-02-21T22:42:42.035Z,31.75
2019-02-21T22:45:02.410Z,28.20
2019-02-21T22:47:22.769Z,26.87
2019-02-21T22:49:43.232Z,31.95
2019-02-21T22:52:03.600Z,32.03
2019-02-21T22:54:23.888Z,31.12
2019-02-21T22:56:44.152Z,27.95
2019-02-21T22:59:04.410Z,27.13
2019-02-21T23:01:27.650Z,35.45
2019-02-21T23:06:14.280Z,32.15
2019-02-21T23:08:44.999Z,31.05
2019-02-21T23:11:05.327Z,28.83
2019-02-21T23:13:25.643Z,24.52
2019-02-21T23:15:46.015Z,23.30
2019-02-21T23:18:06.314Z,24.87
2019-02-21T23:20:26.645Z,27.42
2019-02-21T23:22:46.951Z,27.37
2019-02-21T23:25:08.203Z,24.70
2019-02-21T23:27:28.466Z,21.93
2019-02-21T23:29:49.878Z,23.98
2019-02-21T23:32:10.197Z,22.50
2019-02-21T23:34:37.853Z,20.88
2019-02-21T23:36:58.219Z,28.52
2019-02-21T23:39:18.497Z,25.45
2019-02-21T23:41:38.786Z,28.65
2019-02-21T23:43:59.039Z,26.75
2019-02-21T23:46:19.305Z,25.00
2019-02-21T23:48:39.733Z,20.65
2019-02-21T23:50:59.994Z,23.95
2019-02-21T23:53:20.255Z,25.77
2019-02-21T23:55:40.554Z,20.72
2019-02-21T23:58:00.860Z,19.75
